createdAt,value
2019-04-04T00:00:07.288Z,6.94
2019-04-04T00:01:07.335Z,6.94
2019-04-04T00:02:07.023Z,6.87
2019-04-04T00:03:07.006Z,6.94
2019-04-04T00:04:07.051Z,6.87
2019-04-04T00:05:07.001Z,6.87
2019-04-04T00:06:07.019Z,6.94
2019-04-04T00:07:06.991Z,6.87
2019-04-04T00:08:07.021Z,6.87
2019-04-04T00:09:07.064Z,6.87
2019-04-04T00:10:07.021Z,6.87
2019-04-04T00:11:07.034Z,6.87
2019-04-04T00:12:08.884Z,6.87
2019-04-04T00:13:07.013Z,6.87
2019-04-04T00:14:06.989Z,6.94
2019-04-04T00:15:06.969Z,6.87
2019-04-04T00:16:07.016Z,6.94
2019-04-04T00:17:06.997Z,6.94
2019-04-04T00:18:07.012Z,6.94
2019-04-04T00:19:06.998Z,6.94
2019-04-04T00:20:07.050Z,6.94
2019-04-04T00:21:07.008Z,6.94
2019-04-04T00:22:07.232Z,6.94
2019-04-04T00:23:07.882Z,7
2019-04-04T00:24:09.922Z,6.94
2019-04-04T00:25:10.889Z,6.94
2019-04-04T00:26:06.983Z,6.94
2019-04-04T00:27:06.998Z,6.94
2019-04-04T00:28:06.971Z,6.94
2019-04-04T00:29:07.002Z,6.94
2019-04-04T00:30:06.994Z,6.94
2019-04-04T00:31:06.982Z,6.94
2019-04-04T00:32:07.016Z,6.94
2019-04-04T00:33:06.999Z,6.87
2019-04-04T00:34:06.963Z,6.87
2019-04-04T00:35:07.039Z,6.87
2019-04-04T00:36:06.969Z,6.87
2019-04-04T00:37:06.973Z,6.81
2019-04-04T00:38:07.815Z,6.87
2019-04-04T00:39:10.237Z,6.87
2019-04-04T00:40:06.955Z,6.87
2019-04-04T00:41:06.938Z,6.87
2019-04-04T00:42:06.985Z,6.87
2019-04-04T00:43:06.960Z,6.87
2019-04-04T00:44:07.067Z,6.87
2019-04-04T00:45:06.996Z,6.87
2019-04-04T00:46:06.945Z,6.87
2019-04-04T00:47:06.945Z,6.94
2019-04-04T00:48:06.975Z,6.94
2019-04-04T00:49:06.988Z,6.94
2019-04-04T00:50:07.061Z,6.94
2019-04-04T00:51:08.795Z,6.87
2019-04-04T00:52:11.178Z,6.87
2019-04-04T00:53:06.937Z,6.87
2019-04-04T00:54:06.968Z,6.87
2019-04-04T00:55:07.000Z,6.81
2019-04-04T00:56:06.941Z,6.87
2019-04-04T00:57:06.910Z,6.87
2019-04-04T00:58:06.940Z,6.87
2019-04-04T00:59:06.981Z,6.94
2019-04-04T01:00:06.979Z,6.94
2019-04-04T01:01:06.925Z,6.94
2019-04-04T01:02:07.027Z,6.94
2019-04-04T01:03:06.972Z,7
2019-04-04T01:04:06.939Z,6.94
2019-04-04T01:05:06.892Z,7
2019-04-04T01:06:07.000Z,7
2019-04-04T01:07:06.917Z,6.94
2019-04-04T01:08:07.852Z,7
2019-04-04T01:09:14.105Z,6.94
2019-04-04T01:10:06.963Z,6.94
2019-04-04T01:11:06.938Z,7
2019-04-04T01:12:06.900Z,6.94
2019-04-04T01:13:06.917Z,6.94
2019-04-04T01:14:06.897Z,6.94
2019-04-04T01:15:06.956Z,6.94
2019-04-04T01:16:06.886Z,7
2019-04-04T01:17:06.901Z,7
2019-04-04T01:18:07.873Z,7
2019-04-04T01:19:10.620Z,7
2019-04-04T01:20:06.917Z,6.94
2019-04-04T01:21:06.870Z,7
2019-04-04T01:22:06.905Z,6.94
2019-04-04T01:23:06.906Z,7
2019-04-04T01:24:07.067Z,7
2019-04-04T01:25:06.980Z,7
2019-04-04T01:26:06.916Z,7
2019-04-04T01:27:07.239Z,7
2019-04-04T01:28:08.914Z,7
2019-04-04T01:29:11.451Z,7
2019-04-04T01:30:07.013Z,7
2019-04-04T01:31:06.905Z,7
2019-04-04T01:32:06.893Z,7.06
2019-04-04T01:33:06.868Z,7.06
2019-04-04T01:34:06.877Z,7.06
2019-04-04T01:35:06.879Z,7.12
2019-04-04T01:36:06.942Z,7.12
2019-04-04T01:37:06.878Z,7.12
2019-04-04T01:38:06.876Z,7.06
2019-04-04T01:39:06.909Z,7.06
2019-04-04T01:40:06.854Z,7.06
2019-04-04T01:41:06.883Z,7.12
2019-04-04T01:42:08.172Z,7.06
2019-04-04T01:43:10.230Z,7.12
2019-04-04T01:44:06.873Z,7.06
2019-04-04T01:45:06.876Z,7.06
2019-04-04T01:46:06.861Z,7.06
2019-04-04T01:47:08.270Z,7
2019-04-04T01:48:06.974Z,7.06
2019-04-04T01:49:06.945Z,7
2019-04-04T01:50:06.865Z,7
2019-04-04T01:51:08.289Z,7
2019-04-04T01:52:06.870Z,7.06
2019-04-04T01:53:06.887Z,7.06
2019-04-04T01:54:06.882Z,7
2019-04-04T01:55:06.872Z,7
2019-04-04T01:56:07.395Z,7
2019-04-04T01:57:08.969Z,7
2019-04-04T01:58:10.969Z,7
2019-04-04T01:59:06.914Z,6.94
2019-04-04T02:00:06.865Z,6.94
2019-04-04T02:01:06.828Z,6.94
2019-04-04T02:02:06.842Z,6.94
2019-04-04T02:03:06.855Z,6.94
2019-04-04T02:04:06.852Z,6.94
2019-04-04T02:05:06.849Z,6.94
2019-04-04T02:06:06.884Z,6.94
2019-04-04T02:07:06.826Z,6.94
2019-04-04T02:08:06.869Z,6.94
2019-04-04T02:09:06.832Z,6.94
2019-04-04T02:10:06.835Z,6.94
2019-04-04T02:11:07.356Z,6.94
2019-04-04T02:12:08.772Z,6.94
2019-04-04T02:13:10.700Z,6.94
2019-04-04T02:14:06.817Z,6.94
2019-04-04T02:15:06.852Z,6.94
2019-04-04T02:16:06.902Z,6.94
2019-04-04T02:17:06.827Z,6.94
2019-04-04T02:18:06.807Z,7
2019-04-04T02:19:06.790Z,6.94
2019-04-04T02:20:06.849Z,6.94
2019-04-04T02:21:06.866Z,6.94
2019-04-04T02:22:06.894Z,7
2019-04-04T02:23:06.794Z,6.94
2019-04-04T02:24:06.832Z,7
2019-04-04T02:25:06.899Z,7
2019-04-04T02:26:06.891Z,7
2019-04-04T02:27:07.876Z,7
2019-04-04T02:28:09.747Z,7
2019-04-04T02:29:06.843Z,7
2019-04-04T02:30:06.875Z,7
2019-04-04T02:31:06.918Z,7.06
2019-04-04T02:32:06.883Z,7
2019-04-04T02:33:06.876Z,7
2019-04-04T02:34:08.084Z,7.06
2019-04-04T02:35:12.158Z,7
2019-04-04T02:36:06.818Z,7.06
2019-04-04T02:37:06.858Z,7
2019-04-04T02:38:06.780Z,7
2019-04-04T02:39:06.856Z,7
2019-04-04T02:40:10.485Z,7
2019-04-04T02:41:06.831Z,7
2019-04-04T02:42:06.822Z,7
2019-04-04T02:43:06.838Z,7
2019-04-04T02:44:06.809Z,7
2019-04-04T02:45:07.048Z,6.94
2019-04-04T02:46:12.597Z,6.94
2019-04-04T02:47:06.841Z,6.94
2019-04-04T02:48:06.830Z,6.94
2019-04-04T02:49:06.829Z,7
2019-04-04T02:50:06.794Z,7
2019-04-04T02:51:08.733Z,7
2019-04-04T02:52:06.872Z,6.94
2019-04-04T02:53:06.839Z,7
2019-04-04T02:54:06.944Z,7
2019-04-04T02:55:06.761Z,7
2019-04-04T02:56:06.929Z,6.94
2019-04-04T02:57:09.971Z,6.94
2019-04-04T02:58:06.804Z,6.94
2019-04-04T02:59:06.756Z,6.94
2019-04-04T03:00:06.797Z,6.94
2019-04-04T03:01:06.769Z,6.94
2019-04-04T03:02:06.847Z,6.94
2019-04-04T03:03:09.776Z,6.94
2019-04-04T03:04:06.803Z,6.94
2019-04-04T03:05:06.849Z,6.94
2019-04-04T03:06:06.786Z,7
2019-04-04T03:07:06.864Z,6.94
2019-04-04T03:08:06.786Z,6.87
2019-04-04T03:09:10.945Z,6.87
2019-04-04T03:10:06.806Z,6.81
2019-04-04T03:11:06.721Z,6.75
2019-04-04T03:12:06.754Z,6.75
2019-04-04T03:13:06.729Z,6.75
2019-04-04T03:14:06.823Z,6.75
2019-04-04T03:15:10.604Z,6.75
2019-04-04T03:16:07.014Z,6.81
2019-04-04T03:17:06.873Z,6.87
2019-04-04T03:18:06.760Z,6.81
2019-04-04T03:19:11.673Z,6.87
2019-04-04T03:20:06.768Z,6.81
2019-04-04T03:21:06.782Z,6.87
2019-04-04T03:22:06.817Z,6.87
2019-04-04T03:23:06.778Z,6.81
2019-04-04T03:24:07.636Z,6.87
2019-04-04T03:25:06.781Z,6.87
2019-04-04T03:26:06.744Z,6.94
2019-04-04T03:27:06.794Z,6.87
2019-04-04T03:28:06.788Z,6.87
2019-04-04T03:29:11.247Z,6.94
2019-04-04T03:30:18.009Z,6.87
2019-04-04T03:31:06.819Z,6.94
2019-04-04T03:32:17.913Z,6.94
2019-04-04T03:33:06.845Z,6.87
2019-04-04T03:34:13.805Z,6.94
2019-04-04T03:35:06.773Z,6.87
2019-04-04T03:36:06.808Z,6.94
2019-04-04T03:37:14.243Z,6.94
2019-04-04T03:38:06.740Z,6.94
2019-04-04T03:39:06.793Z,6.94
2019-04-04T03:40:06.803Z,6.87
2019-04-04T03:41:06.834Z,6.87
2019-04-04T03:42:08.606Z,6.87
2019-04-04T03:43:06.827Z,6.87
2019-04-04T03:44:06.763Z,6.87
2019-04-04T03:45:09.806Z,6.87
2019-04-04T03:46:06.690Z,6.87
2019-04-04T03:47:11.684Z,6.94
2019-04-04T03:48:06.673Z,6.94
2019-04-04T03:49:06.726Z,6.94
2019-04-04T03:50:06.713Z,6.87
2019-04-04T03:51:06.728Z,6.94
2019-04-04T03:52:11.876Z,6.94
2019-04-04T03:53:06.754Z,6.94
2019-04-04T03:54:06.798Z,6.94
2019-04-04T03:55:06.700Z,6.94
2019-04-04T03:56:06.778Z,6.94
2019-04-04T03:57:12.725Z,6.94
2019-04-04T03:58:07.519Z,6.87
2019-04-04T03:59:07.024Z,6.94
2019-04-04T04:00:08.070Z,6.87
2019-04-04T04:01:06.714Z,6.87
2019-04-04T04:02:06.697Z,6.87
2019-04-04T04:03:06.740Z,6.87
2019-04-04T04:04:06.683Z,6.87
2019-04-04T04:05:06.683Z,6.87
2019-04-04T04:06:10.440Z,6.87
2019-04-04T04:07:06.730Z,6.87
2019-04-04T04:08:06.712Z,6.87
2019-04-04T04:09:06.695Z,6.87
2019-04-04T04:10:06.666Z,6.87
2019-04-04T04:11:06.780Z,6.81
2019-04-04T04:12:11.629Z,6.81
2019-04-04T04:13:06.662Z,6.81
2019-04-04T04:14:06.686Z,6.81
2019-04-04T04:15:06.701Z,6.81
2019-04-04T04:16:06.694Z,6.81
2019-04-04T04:17:12.904Z,6.81
2019-04-04T04:18:06.683Z,6.81
2019-04-04T04:19:06.675Z,6.87
2019-04-04T04:20:06.707Z,6.81
2019-04-04T04:21:11.526Z,6.81
2019-04-04T04:22:06.676Z,6.81
2019-04-04T04:23:06.710Z,6.81
2019-04-04T04:24:06.658Z,6.81
2019-04-04T04:25:06.655Z,6.81
2019-04-04T04:26:10.382Z,6.81
2019-04-04T04:27:06.706Z,6.87
2019-04-04T04:28:06.703Z,6.81
2019-04-04T04:29:06.643Z,6.81
2019-04-04T04:30:08.116Z,6.81
2019-04-04T04:31:06.632Z,6.81
2019-04-04T04:32:06.745Z,6.81
2019-04-04T04:33:06.662Z,6.81
2019-04-04T04:34:07.873Z,6.81
2019-04-04T04:35:09.534Z,6.81
2019-04-04T04:36:16.877Z,6.81
2019-04-04T04:37:06.644Z,6.81
2019-04-04T04:38:06.688Z,6.81
2019-04-04T04:39:07.055Z,6.81
2019-04-04T04:40:06.637Z,6.81
2019-04-04T04:41:06.741Z,6.81
2019-04-04T04:42:07.635Z,6.81
2019-04-04T04:43:06.843Z,6.75
2019-04-04T04:44:07.069Z,6.75
2019-04-04T04:45:12.889Z,6.75
2019-04-04T04:46:06.750Z,6.75
2019-04-04T04:47:06.629Z,6.81
2019-04-04T04:48:06.627Z,6.81
2019-04-04T04:49:06.620Z,6.81
2019-04-04T04:50:10.333Z,6.81
2019-04-04T04:51:06.621Z,6.81
2019-04-04T04:52:06.617Z,6.81
2019-04-04T04:53:06.673Z,6.81
2019-04-04T04:54:06.606Z,6.81
2019-04-04T04:55:06.630Z,6.81
2019-04-04T04:56:06.657Z,6.81
2019-04-04T04:57:06.646Z,6.87
2019-04-04T04:58:11.514Z,6.81
2019-04-04T04:59:06.610Z,6.87
2019-04-04T05:00:06.666Z,6.81
2019-04-04T05:01:06.574Z,6.81
2019-04-04T05:02:06.610Z,6.81
2019-04-04T05:03:06.594Z,6.81
2019-04-04T05:04:06.637Z,6.87
2019-04-04T05:05:06.629Z,6.81
2019-04-04T05:06:06.713Z,6.81
2019-04-04T05:07:08.345Z,6.75
2019-04-04T05:08:10.921Z,6.69
2019-04-04T05:09:06.585Z,6.69
2019-04-04T05:10:06.609Z,6.69
2019-04-04T05:11:06.648Z,6.69
2019-04-04T05:12:06.581Z,6.69
2019-04-04T05:13:06.593Z,6.56
2019-04-04T05:14:06.583Z,6.5
2019-04-04T05:15:06.765Z,6.37
2019-04-04T05:16:09.227Z,6.31
2019-04-04T05:17:10.894Z,6.31
2019-04-04T05:18:06.787Z,6.37
2019-04-04T05:19:06.575Z,6.37
2019-04-04T05:20:06.576Z,6.31
2019-04-04T05:21:06.676Z,6.37
2019-04-04T05:22:10.048Z,6.37
2019-04-04T05:23:06.621Z,6.31
2019-04-04T05:24:06.614Z,6.37
2019-04-04T05:25:09.497Z,6.31
2019-04-04T05:26:10.142Z,6.25
2019-04-04T05:27:07.010Z,6.31
2019-04-04T05:28:11.539Z,6.19
2019-04-04T05:29:06.659Z,6.25
2019-04-04T05:30:09.036Z,6.25
2019-04-04T05:31:06.672Z,6.19
2019-04-04T05:32:06.638Z,6.19
2019-04-04T05:33:06.576Z,6.19
2019-04-04T05:34:06.762Z,6.25
2019-04-04T05:35:06.667Z,6.25
2019-04-04T05:36:06.609Z,6.25
2019-04-04T05:37:08.523Z,6.25
2019-04-04T05:38:08.908Z,6.25
2019-04-04T05:39:06.728Z,6.19
2019-04-04T05:40:06.623Z,6.19
2019-04-04T05:41:06.609Z,6.12
2019-04-04T05:42:06.555Z,6.19
2019-04-04T05:43:06.623Z,6.12
2019-04-04T05:44:10.596Z,6.19
2019-04-04T05:45:06.572Z,6.12
2019-04-04T05:46:06.570Z,6.12
2019-04-04T05:47:06.682Z,6.12
2019-04-04T05:48:06.581Z,6.19
2019-04-04T05:49:08.872Z,6.19
2019-04-04T05:50:06.570Z,6.25
2019-04-04T05:51:06.616Z,6.25
2019-04-04T05:52:09.636Z,6.25
2019-04-04T05:53:06.519Z,6.25
2019-04-04T05:54:08.704Z,6.31
2019-04-04T05:55:11.253Z,6.31
2019-04-04T05:56:07.005Z,6.31
2019-04-04T05:57:06.561Z,6.31
2019-04-04T05:58:06.581Z,6.31
2019-04-04T05:59:06.558Z,6.31
2019-04-04T06:00:06.625Z,6.31
2019-04-04T06:01:06.591Z,6.31
2019-04-04T06:02:06.615Z,6.31
2019-04-04T06:03:06.578Z,6.25
2019-04-04T06:04:06.753Z,6.25
2019-04-04T06:05:06.606Z,6.19
2019-04-04T06:06:06.673Z,6.12
2019-04-04T06:07:06.591Z,6.19
2019-04-04T06:08:09.083Z,6.19
2019-04-04T06:09:06.568Z,6.19
2019-04-04T06:10:06.493Z,6.19
2019-04-04T06:11:08.695Z,6.25
2019-04-04T06:12:06.520Z,6.25
2019-04-04T06:13:06.510Z,6.25
2019-04-04T06:14:06.531Z,6.25
2019-04-04T06:15:06.510Z,6.25
2019-04-04T06:16:06.556Z,6.25
2019-04-04T06:17:08.135Z,6.25
2019-04-04T06:18:06.618Z,6.25
2019-04-04T06:19:06.551Z,6.25
2019-04-04T06:20:06.499Z,6.19
2019-04-04T06:21:06.492Z,6.19
2019-04-04T06:22:06.613Z,6.19
2019-04-04T06:23:06.610Z,6.25
2019-04-04T06:24:06.486Z,6.25
2019-04-04T06:25:06.707Z,6.19
2019-04-04T06:26:08.069Z,6.25
2019-04-04T06:27:09.920Z,6.25
2019-04-04T06:28:06.572Z,6.19
2019-04-04T06:29:06.561Z,6.19
2019-04-04T06:30:06.524Z,6.12
2019-04-04T06:31:07.610Z,6.12
2019-04-04T06:32:06.480Z,6.12
2019-04-04T06:33:06.486Z,6.06
2019-04-04T06:34:11.130Z,6.06
2019-04-04T06:35:08.348Z,6.06
2019-04-04T06:36:06.561Z,6.06
2019-04-04T06:37:06.481Z,6.12
2019-04-04T06:38:06.568Z,6.12
2019-04-04T06:39:06.543Z,6.12
2019-04-04T06:40:06.587Z,6.12
2019-04-04T06:41:06.507Z,6.12
2019-04-04T06:42:06.526Z,6.12
2019-04-04T06:43:12.361Z,6.12
2019-04-04T06:44:06.491Z,6.19
2019-04-04T06:45:06.448Z,6.19
2019-04-04T06:46:06.534Z,6.19
2019-04-04T06:47:06.470Z,6.19
2019-04-04T06:48:06.439Z,6.19
2019-04-04T06:49:06.508Z,6.19
2019-04-04T06:50:08.966Z,6.19
2019-04-04T06:51:06.462Z,6.25
2019-04-04T06:52:09.788Z,6.31
2019-04-04T06:53:06.444Z,6.25
2019-04-04T06:54:06.544Z,6.25
2019-04-04T06:55:06.484Z,6.19
2019-04-04T06:56:06.529Z,6.25
2019-04-04T06:57:06.476Z,6.25
2019-04-04T06:58:10.037Z,6.25
2019-04-04T06:59:06.493Z,6.25
2019-04-04T07:00:06.485Z,6.12
2019-04-04T07:01:06.452Z,6.19
2019-04-04T07:02:06.576Z,6.19
2019-04-04T07:03:06.435Z,6.19
2019-04-04T07:04:06.485Z,6.25
2019-04-04T07:05:11.005Z,6.25
2019-04-04T07:06:11.115Z,6.25
2019-04-04T07:07:06.555Z,6.25
2019-04-04T07:08:06.456Z,6.25
2019-04-04T07:09:06.411Z,6.25
2019-04-04T07:10:07.733Z,6.25
2019-04-04T07:11:21.998Z,6.25
2019-04-04T07:12:07.505Z,6.25
2019-04-04T07:13:28.482Z,6.25
2019-04-04T07:14:06.584Z,6.31
2019-04-04T07:15:06.617Z,6.25
2019-04-04T07:16:08.549Z,6.25
2019-04-04T07:17:10.061Z,6.25
2019-04-04T07:18:06.429Z,6.25
2019-04-04T07:19:08.605Z,6.25
2019-04-04T07:20:06.398Z,6.25
2019-04-04T07:21:06.504Z,6.31
2019-04-04T07:22:06.439Z,6.31
2019-04-04T07:23:06.394Z,6.31
2019-04-04T07:24:06.470Z,6.31
2019-04-04T07:25:07.196Z,6.25
2019-04-04T07:26:06.516Z,6.31
2019-04-04T07:27:06.431Z,6.25
2019-04-04T07:28:06.426Z,6.31
2019-04-04T07:29:06.497Z,6.31
2019-04-04T07:30:06.405Z,6.31
2019-04-04T07:31:06.414Z,6.31
2019-04-04T07:32:10.410Z,6.31
2019-04-04T07:33:06.445Z,6.31
2019-04-04T07:34:06.401Z,6.31
2019-04-04T07:35:06.427Z,6.31
2019-04-04T07:36:06.438Z,6.31
2019-04-04T07:37:06.388Z,6.25
2019-04-04T07:38:06.468Z,6.19
2019-04-04T07:39:06.471Z,6.12
2019-04-04T07:40:06.393Z,6.06
2019-04-04T07:41:09.379Z,6.06
2019-04-04T07:42:06.455Z,6.06
2019-04-04T07:43:09.195Z,6.06
2019-04-04T07:44:06.430Z,6.06
2019-04-04T07:45:07.320Z,6.06
2019-04-04T07:46:17.445Z,6.06
2019-04-04T07:47:06.463Z,6.06
2019-04-04T07:48:06.374Z,6
2019-04-04T07:49:06.354Z,6
2019-04-04T07:50:06.385Z,5.94
2019-04-04T07:51:06.392Z,6
2019-04-04T07:52:06.398Z,5.87
2019-04-04T07:53:06.397Z,5.87
2019-04-04T07:54:08.584Z,5.81
2019-04-04T07:55:11.208Z,5.81
2019-04-04T07:56:06.394Z,5.81
2019-04-04T07:57:07.362Z,5.81
2019-04-04T07:58:06.339Z,5.81
2019-04-04T07:59:06.347Z,5.81
2019-04-04T08:00:06.353Z,5.75
2019-04-04T08:01:06.333Z,5.81
2019-04-04T08:02:06.367Z,5.81
2019-04-04T08:03:07.704Z,5.81
2019-04-04T08:04:07.119Z,5.75
2019-04-04T08:05:06.411Z,5.75
2019-04-04T08:06:06.415Z,5.75
2019-04-04T08:07:06.347Z,5.69
2019-04-04T08:08:06.361Z,5.69
2019-04-04T08:09:06.365Z,5.62
2019-04-04T08:10:06.399Z,5.62
2019-04-04T08:11:06.398Z,5.62
2019-04-04T08:12:06.335Z,5.62
2019-04-04T08:13:06.312Z,5.62
2019-04-04T08:14:06.360Z,5.69
2019-04-04T08:15:06.325Z,5.56
2019-04-04T08:16:06.345Z,5.56
2019-04-04T08:17:06.317Z,5.56
2019-04-04T08:18:06.585Z,5.5
2019-04-04T08:19:06.716Z,5.5
2019-04-04T08:20:06.344Z,5.5
2019-04-04T08:21:06.402Z,5.44
2019-04-04T08:22:06.560Z,5.37
2019-04-04T08:23:06.376Z,5.44
2019-04-04T08:24:06.352Z,5.44
2019-04-04T08:25:06.290Z,5.37
2019-04-04T08:26:06.363Z,5.31
2019-04-04T08:27:06.388Z,5.25
2019-04-04T08:28:06.313Z,5.25
2019-04-04T08:29:06.354Z,5.31
2019-04-04T08:30:06.363Z,5.31
2019-04-04T08:31:06.328Z,5.31
2019-04-04T08:32:06.344Z,5.25
2019-04-04T08:33:06.304Z,5.25
2019-04-04T08:34:06.331Z,5.25
2019-04-04T08:35:06.331Z,5.25
2019-04-04T08:36:07.189Z,5.19
2019-04-04T08:37:06.290Z,5.19
2019-04-04T08:38:06.342Z,5.25
2019-04-04T08:39:06.301Z,5.25
2019-04-04T08:40:06.362Z,5.19
2019-04-04T08:41:06.342Z,5.25
2019-04-04T08:42:06.349Z,5.19
2019-04-04T08:43:06.341Z,5.19
2019-04-04T08:44:06.281Z,5.25
2019-04-04T08:45:07.311Z,5.19
2019-04-04T08:46:06.310Z,5.25
2019-04-04T08:47:06.257Z,5.25
2019-04-04T08:48:06.311Z,5.25
2019-04-04T08:49:06.265Z,5.25
2019-04-04T08:50:06.284Z,5.25
2019-04-04T08:51:06.260Z,5.19
2019-04-04T08:52:21.219Z,5.25
2019-04-04T08:53:06.320Z,5.19
2019-04-04T08:54:06.307Z,5.19
2019-04-04T08:55:06.275Z,5.25
2019-04-04T08:56:06.313Z,5.25
2019-04-04T08:57:06.264Z,5.25
2019-04-04T08:58:06.338Z,5.19
2019-04-04T08:59:06.247Z,5.19
2019-04-04T09:00:06.290Z,5.12
2019-04-04T09:01:06.313Z,5.12
2019-04-04T09:02:06.254Z,5.12
2019-04-04T09:03:06.231Z,5.12
2019-04-04T09:04:06.225Z,5.12
2019-04-04T09:05:13.051Z,5.19
2019-04-04T09:06:06.319Z,5.12
2019-04-04T09:07:08.793Z,5.06
2019-04-04T09:08:06.240Z,5.12
2019-04-04T09:09:06.276Z,5.12
2019-04-04T09:10:06.293Z,5.12
2019-04-04T09:11:06.319Z,5.06
2019-04-04T09:12:06.257Z,5
2019-04-04T09:13:06.297Z,5.06
2019-04-04T09:14:06.281Z,5.06
2019-04-04T09:15:06.258Z,5.06
2019-04-04T09:16:06.271Z,5.06
2019-04-04T09:17:06.216Z,5.06
2019-04-04T09:18:06.228Z,5.06
2019-04-04T09:19:06.237Z,5.06
2019-04-04T09:20:10.133Z,5.06
2019-04-04T09:21:06.326Z,5.06
2019-04-04T09:22:06.339Z,5.06
2019-04-04T09:23:06.346Z,5.12
2019-04-04T09:24:06.264Z,5.19
2019-04-04T09:25:06.257Z,5.19
2019-04-04T09:26:06.756Z,5.12
2019-04-04T09:27:06.198Z,5.19
2019-04-04T09:28:06.295Z,5.19
2019-04-04T09:29:06.232Z,5.12
2019-04-04T09:30:06.263Z,5.12
2019-04-04T09:31:06.278Z,5.12
2019-04-04T09:32:06.239Z,5.12
2019-04-04T09:33:06.257Z,5.06
2019-04-04T09:34:06.234Z,5.12
2019-04-04T09:35:06.249Z,5.12
2019-04-04T09:36:06.265Z,5.12
2019-04-04T09:37:09.178Z,5.19
2019-04-04T09:38:06.194Z,5.12
2019-04-04T09:39:06.212Z,5.12
2019-04-04T09:40:06.236Z,5.12
2019-04-04T09:41:06.205Z,5.19
2019-04-04T09:42:06.193Z,5.19
2019-04-04T09:43:06.192Z,5.25
2019-04-04T09:44:06.729Z,5.25
2019-04-04T09:45:06.265Z,5.31
2019-04-04T09:46:06.259Z,5.25
2019-04-04T09:47:06.309Z,5.31
2019-04-04T09:48:06.177Z,5.31
2019-04-04T09:49:06.184Z,5.31
2019-04-04T09:50:07.646Z,5.37
2019-04-04T09:51:07.294Z,5.37
2019-04-04T09:52:06.227Z,5.44
2019-04-04T09:53:06.196Z,5.44
2019-04-04T09:54:06.183Z,5.5
2019-04-04T09:55:06.157Z,5.44
2019-04-04T09:56:06.196Z,5.37
2019-04-04T09:57:06.188Z,5.44
2019-04-04T09:58:06.199Z,5.44
2019-04-04T09:59:06.188Z,5.44
2019-04-04T10:00:06.152Z,5.44
2019-04-04T10:01:07.120Z,5.44
2019-04-04T10:02:06.184Z,5.5
2019-04-04T10:03:06.223Z,5.44
2019-04-04T10:04:06.133Z,5.5
2019-04-04T10:05:07.054Z,5.44
2019-04-04T10:06:06.138Z,5.44
2019-04-04T10:07:06.420Z,5.56
2019-04-04T10:08:06.461Z,5.56
2019-04-04T10:09:17.265Z,5.62
2019-04-04T10:10:06.233Z,5.62
2019-04-04T10:11:06.106Z,5.69
2019-04-04T10:12:06.149Z,5.69
2019-04-04T10:13:06.135Z,5.69
2019-04-04T10:14:06.131Z,5.62
2019-04-04T10:15:06.172Z,5.56
2019-04-04T10:16:06.176Z,5.56
2019-04-04T10:17:06.157Z,5.56
2019-04-04T10:18:06.137Z,5.56
2019-04-04T10:19:06.177Z,5.62
2019-04-04T10:20:06.101Z,5.62
2019-04-04T10:21:13.074Z,5.69
2019-04-04T10:22:06.105Z,5.69
2019-04-04T10:23:06.202Z,5.69
2019-04-04T10:24:06.132Z,5.75
2019-04-04T10:25:06.230Z,5.75
2019-04-04T10:26:06.102Z,5.75
2019-04-04T10:27:06.157Z,5.75
2019-04-04T10:28:06.101Z,5.75
2019-04-04T10:29:06.314Z,5.75
2019-04-04T10:30:06.494Z,5.75
2019-04-04T10:31:06.147Z,5.81
2019-04-04T10:32:06.132Z,5.75
2019-04-04T10:33:06.073Z,5.75
2019-04-04T10:34:06.174Z,5.75
2019-04-04T10:35:06.105Z,5.69
2019-04-04T10:36:06.100Z,5.75
2019-04-04T10:37:06.108Z,5.69
2019-04-04T10:38:06.123Z,5.62
2019-04-04T10:39:06.126Z,5.62
2019-04-04T10:40:06.158Z,5.5
2019-04-04T10:41:06.122Z,5.44
2019-04-04T10:42:06.277Z,5.5
2019-04-04T10:43:06.078Z,5.5
2019-04-04T10:44:06.095Z,5.56
2019-04-04T10:45:06.172Z,5.56
2019-04-04T10:46:06.128Z,5.56
2019-04-04T10:47:06.073Z,5.5
2019-04-04T10:48:06.102Z,5.56
2019-04-04T10:49:08.649Z,5.56
2019-04-04T10:50:06.137Z,5.44
2019-04-04T10:51:06.102Z,5.5
2019-04-04T10:52:06.104Z,5.5
2019-04-04T10:53:06.221Z,5.56
2019-04-04T10:54:06.070Z,5.56
2019-04-04T10:55:06.104Z,5.5
2019-04-04T10:56:06.121Z,5.56
2019-04-04T10:57:06.266Z,5.56
2019-04-04T10:58:06.183Z,5.56
2019-04-04T10:59:06.267Z,5.56
2019-04-04T11:00:06.115Z,5.56
2019-04-04T11:01:06.138Z,5.56
2019-04-04T11:02:06.117Z,5.56
2019-04-04T11:03:06.109Z,5.5
2019-04-04T11:04:06.111Z,5.56
2019-04-04T11:05:06.139Z,5.56
2019-04-04T11:06:06.121Z,5.56
2019-04-04T11:07:06.090Z,5.56
2019-04-04T11:08:07.532Z,5.5
2019-04-04T11:09:06.072Z,5.44
2019-04-04T11:10:06.079Z,5.5
2019-04-04T11:11:06.065Z,5.56
2019-04-04T11:12:06.082Z,5.56
2019-04-04T11:13:06.575Z,5.56
2019-04-04T11:14:06.148Z,5.56
2019-04-04T11:15:06.038Z,5.56
2019-04-04T11:16:06.127Z,5.62
2019-04-04T11:17:06.044Z,5.56
2019-04-04T11:18:06.068Z,5.56
2019-04-04T11:19:06.067Z,5.44
2019-04-04T11:20:06.070Z,5.44
2019-04-04T11:21:06.025Z,5.5
2019-04-04T11:22:06.035Z,5.5
2019-04-04T11:23:06.079Z,5.56
2019-04-04T11:24:06.090Z,5.62
2019-04-04T11:25:06.090Z,5.69
2019-04-04T11:26:06.054Z,5.69
2019-04-04T11:27:06.513Z,5.69
2019-04-04T11:28:06.021Z,5.69
2019-04-04T11:29:06.029Z,5.75
2019-04-04T11:30:06.051Z,5.75
2019-04-04T11:31:06.034Z,5.62
2019-04-04T11:32:06.060Z,5.69
2019-04-04T11:33:06.065Z,5.75
2019-04-04T11:34:06.054Z,5.81
2019-04-04T11:35:06.452Z,5.81
2019-04-04T11:36:06.016Z,5.87
2019-04-04T11:37:06.053Z,5.81
2019-04-04T11:38:06.030Z,5.81
2019-04-04T11:39:06.065Z,5.81
2019-04-04T11:40:06.041Z,5.81
2019-04-04T11:41:06.023Z,5.81
2019-04-04T11:42:06.030Z,5.81
2019-04-04T11:43:06.002Z,5.81
2019-04-04T11:44:05.989Z,5.81
2019-04-04T11:45:06.032Z,5.81
2019-04-04T11:46:06.033Z,5.81
2019-04-04T11:47:06.063Z,5.81
2019-04-04T11:48:06.080Z,5.81
2019-04-04T11:49:06.003Z,5.81
2019-04-04T11:50:06.050Z,5.87
2019-04-04T11:51:06.116Z,5.87
2019-04-04T11:52:05.991Z,5.81
2019-04-04T11:53:06.017Z,5.75
2019-04-04T11:54:05.986Z,5.75
2019-04-04T11:55:06.181Z,5.75
2019-04-04T11:56:06.179Z,5.75
2019-04-04T11:57:06.235Z,5.69
2019-04-04T11:58:06.001Z,5.75
2019-04-04T11:59:08.558Z,5.69
2019-04-04T12:00:05.996Z,5.69
2019-04-04T12:01:06.034Z,5.69
2019-04-04T12:02:06.101Z,5.69
2019-04-04T12:03:05.971Z,5.69
2019-04-04T12:04:06.056Z,5.62
2019-04-04T12:05:06.004Z,5.62
2019-04-04T12:06:06.032Z,5.69
2019-04-04T12:07:06.043Z,5.75
2019-04-04T12:08:05.992Z,5.75
2019-04-04T12:09:05.987Z,5.75
2019-04-04T12:10:08.791Z,5.75
2019-04-04T12:11:05.969Z,5.81
2019-04-04T12:12:05.971Z,5.81
2019-04-04T12:13:06.005Z,5.81
2019-04-04T12:14:06.047Z,5.81
2019-04-04T12:15:05.996Z,5.81
2019-04-04T12:16:05.992Z,5.75
2019-04-04T12:17:06.018Z,5.75
2019-04-04T12:18:06.896Z,5.81
2019-04-04T12:19:06.116Z,5.81
2019-04-04T12:20:06.014Z,5.81
2019-04-04T12:21:06.023Z,5.81
2019-04-04T12:22:05.970Z,5.81
2019-04-04T12:23:05.959Z,5.87
2019-04-04T12:24:06.004Z,5.87
2019-04-04T12:25:05.973Z,5.81
2019-04-04T12:26:06.876Z,5.81
2019-04-04T12:27:05.927Z,5.81
2019-04-04T12:28:05.984Z,5.87
2019-04-04T12:29:05.938Z,5.81
2019-04-04T12:30:05.991Z,5.87
2019-04-04T12:31:05.929Z,5.81
2019-04-04T12:32:05.925Z,5.87
2019-04-04T12:33:05.933Z,5.87
2019-04-04T12:34:05.913Z,5.87
2019-04-04T12:35:06.902Z,5.94
2019-04-04T12:36:07.390Z,5.94
2019-04-04T12:37:05.948Z,5.87
2019-04-04T12:38:05.921Z,5.94
2019-04-04T12:39:05.966Z,5.87
2019-04-04T12:40:21.674Z,5.94
2019-04-04T12:41:05.913Z,5.94
2019-04-04T12:42:05.889Z,5.87
2019-04-04T12:43:05.985Z,5.87
2019-04-04T12:44:05.897Z,5.87
2019-04-04T12:45:06.306Z,5.94
2019-04-04T12:46:07.333Z,5.87
2019-04-04T12:47:05.906Z,5.87
2019-04-04T12:48:09.469Z,5.87
2019-04-04T12:49:05.951Z,5.87
2019-04-04T12:50:06.045Z,5.87
2019-04-04T12:51:06.008Z,5.87
2019-04-04T12:52:07.135Z,5.87
2019-04-04T12:53:05.900Z,5.87
2019-04-04T12:54:05.944Z,5.87
2019-04-04T12:55:06.821Z,5.87
2019-04-04T12:56:05.918Z,5.94
2019-04-04T12:57:05.892Z,5.94
2019-04-04T12:58:05.928Z,6
2019-04-04T12:59:05.898Z,6
2019-04-04T13:00:05.890Z,6.06
2019-04-04T13:01:05.899Z,6
2019-04-04T13:02:05.901Z,5.94
2019-04-04T13:03:05.878Z,5.94
2019-04-04T13:04:05.869Z,5.94
2019-04-04T13:05:05.908Z,6
2019-04-04T13:06:05.885Z,6
2019-04-04T13:07:05.910Z,6
2019-04-04T13:08:05.888Z,6
2019-04-04T13:09:06.429Z,6
2019-04-04T13:10:12.625Z,6
2019-04-04T13:11:07.091Z,6.06
2019-04-04T13:12:05.859Z,6.06
2019-04-04T13:13:05.906Z,6.12
2019-04-04T13:14:05.911Z,6.06
2019-04-04T13:15:05.885Z,6.12
2019-04-04T13:16:05.934Z,6.12
2019-04-04T13:17:05.890Z,6.06
2019-04-04T13:18:05.897Z,6.06
2019-04-04T13:19:05.864Z,6.06
2019-04-04T13:20:05.886Z,6.06
2019-04-04T13:21:06.004Z,6.06
2019-04-04T13:22:05.917Z,6.06
2019-04-04T13:23:05.987Z,6.06
2019-04-04T13:24:06.123Z,5.94
2019-04-04T13:25:05.928Z,6
2019-04-04T13:26:05.865Z,5.94